createdAt,value
2022-09-29T00:00:02.400Z,4.00
2022-09-29T00:02:38.406Z,4.27
2022-09-29T00:05:10.290Z,4.00
2022-09-29T00:07:40.871Z,3.80
2022-09-29T00:10:09.857Z,3.83
2022-09-29T00:12:39.112Z,4.23
2022-09-29T00:15:13.283Z,3.80
2022-09-29T00:18:09.253Z,4.07
2022-09-29T00:20:32.451Z,3.70
2022-09-29T00:23:00.219Z,3.90
2022-09-29T00:25:30.925Z,3.70
2022-09-29T00:27:58.346Z,3.77
2022-09-29T00:30:28.834Z,4.23
2022-09-29T00:32:55.857Z,3.97
2022-09-29T00:35:22.558Z,3.67
2022-09-29T00:37:49.236Z,3.60
2022-09-29T00:40:20.273Z,4.17
2022-09-29T00:42:49.223Z,3.80
2022-09-29T00:45:25.101Z,3.97
2022-09-29T00:48:14.357Z,3.93
2022-09-29T00:50:51.194Z,3.30
2022-09-29T00:53:21.894Z,4.10
2022-09-29T00:56:06.378Z,3.80
2022-09-29T00:58:50.997Z,4.07
2022-09-29T01:01:19.088Z,3.67
2022-09-29T01:03:51.207Z,3.80
2022-09-29T01:06:26.974Z,3.70
2022-09-29T01:09:13.126Z,3.23
2022-09-29T01:11:40.434Z,3.77
2022-09-29T01:14:10.404Z,3.63
2022-09-29T01:16:42.143Z,3.83
2022-09-29T01:19:17.478Z,3.80
2022-09-29T01:22:02.393Z,3.60
2022-09-29T01:25:12.340Z,4.03
2022-09-29T01:28:05.913Z,3.50
2022-09-29T01:30:56.154Z,3.53
2022-09-29T01:33:29.348Z,3.70
2022-09-29T01:36:19.519Z,3.37
2022-09-29T01:39:06.490Z,3.10
2022-09-29T01:41:36.300Z,3.73
2022-09-29T01:44:29.199Z,3.10
2022-09-29T01:46:58.858Z,3.70
2022-09-29T01:49:30.195Z,3.70
2022-09-29T01:52:09.124Z,3.83
2022-09-29T01:54:49.199Z,3.47
2022-09-29T01:57:37.355Z,3.53
2022-09-29T02:00:09.460Z,4.17
2022-09-29T02:02:48.083Z,3.40
2022-09-29T02:05:21.364Z,3.80
2022-09-29T02:07:49.184Z,3.47
2022-09-29T02:10:35.111Z,3.67
2022-09-29T02:13:05.587Z,3.43
2022-09-29T02:15:38.332Z,3.17
2022-09-29T02:18:22.811Z,3.70
2022-09-29T02:20:50.806Z,3.13
2022-09-29T02:23:21.796Z,3.20
2022-09-29T02:25:55.841Z,3.03
2022-09-29T02:28:22.801Z,3.20
2022-09-29T02:30:53.221Z,3.57
2022-09-29T02:33:24.965Z,2.80
2022-09-29T02:35:58.916Z,3.50
2022-09-29T02:38:41.157Z,2.93
2022-09-29T02:41:14.121Z,3.17
2022-09-29T02:43:52.412Z,3.17
2022-09-29T02:46:45.011Z,3.40
2022-09-29T02:49:44.798Z,3.47
2022-09-29T02:52:31.726Z,4.13
2022-09-29T02:55:13.135Z,3.33
2022-09-29T02:57:48.949Z,3.23
2022-09-29T03:00:21.978Z,3.17
2022-09-29T03:02:48.990Z,3.40
2022-09-29T03:05:19.982Z,3.43
2022-09-29T03:07:46.645Z,3.53
2022-09-29T03:10:15.291Z,3.53
2022-09-29T03:12:42.604Z,3.40
2022-09-29T03:15:13.049Z,3.43
2022-09-29T03:17:45.410Z,3.57
2022-09-29T03:20:12.122Z,3.40
2022-09-29T03:22:39.151Z,3.60
2022-09-29T03:25:06.899Z,3.60
2022-09-29T03:27:36.707Z,3.80
2022-09-29T03:30:04.003Z,3.53
2022-09-29T03:32:30.861Z,3.97
2022-09-29T03:34:58.208Z,3.77
2022-09-29T03:37:25.850Z,3.43
2022-09-29T03:39:52.806Z,3.50
2022-09-29T03:42:22.791Z,3.40
2022-09-29T03:44:49.773Z,3.87
2022-09-29T03:47:16.489Z,4.00
2022-09-29T03:49:48.790Z,3.47
2022-09-29T03:52:19.254Z,3.70
2022-09-29T03:54:46.013Z,3.80
2022-09-29T03:57:13.019Z,3.50
2022-09-29T03:59:45.266Z,3.60
2022-09-29T04:02:12.914Z,3.37
2022-09-29T04:04:39.909Z,3.40
2022-09-29T04:07:06.814Z,3.50
2022-09-29T04:09:33.619Z,3.33
2022-09-29T04:12:00.818Z,3.77
2022-09-29T04:14:29.409Z,4.10
2022-09-29T04:16:56.392Z,3.93
2022-09-29T04:19:23.860Z,3.60
2022-09-29T04:21:50.953Z,3.70
2022-09-29T04:24:17.931Z,3.63
2022-09-29T04:26:45.173Z,3.60
2022-09-29T04:29:12.138Z,3.80
2022-09-29T04:31:40.079Z,3.77
2022-09-29T04:34:07.913Z,3.33
2022-09-29T04:36:34.902Z,3.30
2022-09-29T04:39:02.743Z,3.73
2022-09-29T04:41:37.536Z,3.47
2022-09-29T04:44:06.859Z,4.03
2022-09-29T04:46:34.069Z,3.37
2022-09-29T04:49:00.925Z,3.57
2022-09-29T04:51:28.769Z,3.40
2022-09-29T04:53:55.478Z,3.37
2022-09-29T04:56:22.502Z,3.33
2022-09-29T04:58:49.280Z,3.60
2022-09-29T05:01:17.551Z,3.40
2022-09-29T05:03:46.543Z,3.47
2022-09-29T05:06:15.311Z,3.60
2022-09-29T05:08:44.301Z,3.77
2022-09-29T05:11:12.767Z,3.90
2022-09-29T05:13:41.389Z,3.70
2022-09-29T05:16:09.801Z,3.97
2022-09-29T05:18:41.371Z,3.80
2022-09-29T05:21:27.675Z,4.17
2022-09-29T05:23:56.670Z,4.10
2022-09-29T05:26:26.601Z,4.40
2022-09-29T05:28:55.650Z,4.57
2022-09-29T05:31:22.962Z,4.37
2022-09-29T05:33:51.572Z,3.83
2022-09-29T05:36:19.132Z,4.30
2022-09-29T05:38:48.327Z,4.17
2022-09-29T05:41:23.614Z,4.07
2022-09-29T05:44:02.962Z,4.23
2022-09-29T05:46:33.405Z,4.27
2022-09-29T05:49:06.375Z,4.20
2022-09-29T05:51:35.087Z,4.10
2022-09-29T05:54:08.930Z,4.00
2022-09-29T05:56:45.045Z,4.70
2022-09-29T05:59:25.831Z,4.13
2022-09-29T06:01:57.359Z,4.50
2022-09-29T06:04:38.665Z,4.03
2022-09-29T06:07:10.280Z,4.50
2022-09-29T06:09:45.579Z,4.77
2022-09-29T06:12:36.061Z,4.50
2022-09-29T06:15:23.211Z,4.00
2022-09-29T06:18:14.108Z,5.07
2022-09-29T06:20:59.290Z,4.37
2022-09-29T06:23:57.332Z,4.90
2022-09-29T06:29:46.829Z,4.90
2022-09-29T06:32:14.688Z,4.70
2022-09-29T06:45:14.028Z,4.50
2022-09-29T06:57:52.292Z,3.87
2022-09-29T07:13:13.240Z,4.50
2022-09-29T07:15:43.036Z,5.27
2022-09-29T07:18:32.804Z,5.70
2022-09-29T07:21:00.914Z,4.80
2022-09-29T07:23:38.040Z,4.47
2022-09-29T07:26:07.187Z,4.10
2022-09-29T07:28:35.019Z,3.63
2022-09-29T07:31:14.935Z,3.93
2022-09-29T07:33:58.415Z,3.97
2022-09-29T07:36:28.322Z,3.93
2022-09-29T07:39:04.543Z,4.03
2022-09-29T07:41:36.236Z,3.80
2022-09-29T07:44:04.020Z,3.80
2022-09-29T07:46:43.253Z,4.10
2022-09-29T07:49:12.704Z,4.00
2022-09-29T07:51:42.019Z,4.00
2022-09-29T07:54:11.581Z,4.10
2022-09-29T07:56:42.097Z,4.00
2022-09-29T07:59:20.594Z,4.30
2022-09-29T08:02:03.548Z,4.03
2022-09-29T08:04:37.101Z,4.23
2022-09-29T08:07:05.890Z,4.40
2022-09-29T08:09:41.140Z,3.93
2022-09-29T08:12:18.835Z,4.10
2022-09-29T08:14:51.053Z,4.70
2022-09-29T08:17:24.434Z,4.50
2022-09-29T08:20:12.345Z,4.73
2022-09-29T08:22:44.792Z,4.00
2022-09-29T08:25:15.582Z,4.47
2022-09-29T08:30:43.010Z,3.80
2022-09-29T08:33:17.026Z,4.00
2022-09-29T08:35:46.434Z,4.53
2022-09-29T08:38:25.139Z,4.37
2022-09-29T08:41:16.502Z,3.40
2022-09-29T08:46:42.708Z,3.80
2022-09-29T08:49:33.563Z,4.87
2022-09-29T08:55:59.639Z,4.13
2022-09-29T08:58:34.181Z,4.27
2022-09-29T09:01:25.217Z,4.60
2022-09-29T09:04:29.233Z,4.60
2022-09-29T09:07:18.982Z,4.40
2022-09-29T09:10:32.366Z,3.80
2022-09-29T09:13:26.824Z,4.43
2022-09-29T09:16:21.486Z,4.30
2022-09-29T09:19:07.976Z,4.67
2022-09-29T09:22:07.339Z,4.47
2022-09-29T09:24:56.221Z,4.60
2022-09-29T09:28:00.508Z,4.40
2022-09-29T09:30:47.288Z,4.40
2022-09-29T09:34:05.211Z,5.17
2022-09-29T09:37:13.391Z,4.97
2022-09-29T09:39:55.228Z,4.40
2022-09-29T09:42:37.205Z,4.77
2022-09-29T09:45:21.471Z,4.50
2022-09-29T09:47:55.321Z,4.90
2022-09-29T09:50:34.169Z,5.50
2022-09-29T09:53:30.166Z,5.00
2022-09-29T09:56:52.937Z,4.23
2022-09-29T09:59:45.610Z,4.63
2022-09-29T10:02:26.558Z,5.00
2022-09-29T10:04:56.205Z,4.40
2022-09-29T10:07:32.217Z,5.97
2022-09-29T10:10:07.431Z,4.60
2022-09-29T10:12:40.365Z,6.07
2022-09-29T10:15:34.726Z,5.60
2022-09-29T10:18:31.780Z,4.77
2022-09-29T10:21:06.153Z,5.87
2022-09-29T10:23:55.309Z,4.63
2022-09-29T10:26:53.632Z,5.00
2022-09-29T10:29:59.879Z,4.80
2022-09-29T10:32:46.761Z,4.20
2022-09-29T10:35:31.168Z,4.23
2022-09-29T10:38:28.817Z,4.00
2022-09-29T10:41:05.817Z,4.37
2022-09-29T10:43:38.458Z,5.10
2022-09-29T10:46:28.590Z,4.60
2022-09-29T10:49:26.854Z,4.27
2022-09-29T10:52:02.014Z,4.30
2022-09-29T10:54:43.851Z,4.53
2022-09-29T10:57:17.718Z,4.43
2022-09-29T10:59:52.329Z,4.33
2022-09-29T11:02:38.067Z,4.37
2022-09-29T11:05:24.273Z,4.47
2022-09-29T11:07:58.108Z,3.83
2022-09-29T11:10:31.286Z,4.13
2022-09-29T11:13:21.111Z,3.53
2022-09-29T11:15:51.548Z,3.63
2022-09-29T11:18:32.241Z,3.47
2022-09-29T11:21:24.764Z,4.00
2022-09-29T11:24:08.463Z,3.60
2022-09-29T11:30:08.158Z,3.67
2022-09-29T11:36:36.219Z,3.83
2022-09-29T11:39:27.156Z,3.50
2022-09-29T11:41:57.503Z,3.93
2022-09-29T11:44:55.298Z,3.17
2022-09-29T11:48:01.611Z,3.30
2022-09-29T11:50:51.717Z,3.23
2022-09-29T11:53:44.517Z,3.43
2022-09-29T11:56:25.522Z,3.80
2022-09-29T11:59:00.901Z,3.50
2022-09-29T12:01:43.869Z,2.97
2022-09-29T12:04:24.127Z,3.33
2022-09-29T12:07:28.820Z,2.60
2022-09-29T12:10:25.771Z,3.13
2022-09-29T12:13:40.283Z,3.27
2022-09-29T12:16:21.117Z,3.97
2022-09-29T12:19:20.246Z,3.40
2022-09-29T12:21:58.562Z,3.03
2022-09-29T12:25:07.352Z,3.03
2022-09-29T12:27:53.907Z,3.60
2022-09-29T12:30:54.372Z,3.50
2022-09-29T12:33:55.778Z,3.00
2022-09-29T12:37:15.426Z,3.37
2022-09-29T12:39:54.351Z,3.53
2022-09-29T12:43:01.041Z,2.80
2022-09-29T12:46:13.812Z,3.20
2022-09-29T12:49:15.848Z,3.83
2022-09-29T12:51:46.693Z,3.40
2022-09-29T12:54:29.048Z,3.23
2022-09-29T12:57:07.224Z,2.70
2022-09-29T13:00:04.525Z,2.90
2022-09-29T13:03:03.896Z,3.07
2022-09-29T13:06:05.577Z,3.00
2022-09-29T13:08:54.262Z,2.43
2022-09-29T13:11:48.289Z,2.60
2022-09-29T13:15:14.009Z,3.00
2022-09-29T13:17:54.081Z,2.60
2022-09-29T13:20:52.066Z,2.23
2022-09-29T13:23:47.890Z,2.23
2022-09-29T13:26:25.704Z,1.80
2022-09-29T13:29:29.893Z,1.80
2022-09-29T13:32:05.579Z,1.73
2022-09-29T13:34:42.107Z,1.23
2022-09-29T13:37:27.082Z,1.50
2022-09-29T13:40:03.709Z,1.47
2022-09-29T13:42:47.197Z,1.53
2022-09-29T13:45:22.494Z,1.53
2022-09-29T13:47:52.875Z,1.60
2022-09-29T13:50:49.932Z,1.70
2022-09-29T13:53:22.799Z,1.40
2022-09-29T13:56:14.304Z,1.00
2022-09-29T13:59:02.882Z,1.30
2022-09-29T14:01:33.503Z,1.20
2022-09-29T14:04:43.819Z,1.23
2022-09-29T14:07:13.939Z,1.30
2022-09-29T14:09:48.432Z,1.30
2022-09-29T14:12:26.477Z,1.77
2022-09-29T14:14:58.143Z,1.50
2022-09-29T14:17:37.283Z,1.40
2022-09-29T14:20:15.538Z,1.37
2022-09-29T14:23:17.406Z,1.60
2022-09-29T14:25:44.001Z,2.20
2022-09-29T14:28:14.686Z,1.20
2022-09-29T14:30:54.855Z,1.30
2022-09-29T14:33:38.220Z,1.30
2022-09-29T14:36:28.191Z,1.27
2022-09-29T14:39:24.597Z,0.90
2022-09-29T14:41:52.772Z,1.10
2022-09-29T14:44:24.983Z,1.30
2022-09-29T14:47:40.769Z,2.13
2022-09-29T14:50:52.294Z,3.57
2022-09-29T14:53:26.045Z,4.90
2022-09-29T14:56:34.597Z,4.17
2022-09-29T14:59:17.642Z,3.80
2022-09-29T15:02:21.630Z,3.43
2022-09-29T15:04:48.652Z,3.00
2022-09-29T15:07:23.420Z,3.10
2022-09-29T15:09:56.247Z,2.93
2022-09-29T15:12:31.605Z,2.90
2022-09-29T15:15:00.204Z,3.17
2022-09-29T15:17:45.723Z,3.00
2022-09-29T15:20:24.806Z,2.60
2022-09-29T15:23:22.751Z,2.60
2022-09-29T15:25:51.298Z,2.20
2022-09-29T15:28:37.798Z,2.70
2022-09-29T15:31:07.572Z,2.40
2022-09-29T15:33:43.086Z,2.50
2022-09-29T15:36:24.556Z,2.50
2022-09-29T15:39:00.455Z,2.20
2022-09-29T15:41:30.781Z,2.00
2022-09-29T15:44:13.621Z,2.53
2022-09-29T15:46:48.760Z,2.23
2022-09-29T15:49:17.186Z,2.40
2022-09-29T15:51:56.354Z,2.27
2022-09-29T15:54:23.560Z,2.43
2022-09-29T15:57:09.801Z,2.37
2022-09-29T15:59:52.534Z,1.87
2022-09-29T16:02:41.896Z,2.17
2022-09-29T16:05:15.670Z,2.47
2022-09-29T16:07:58.256Z,2.20
2022-09-29T16:10:30.315Z,2.67
2022-09-29T16:13:08.555Z,2.90
2022-09-29T16:15:43.182Z,2.40
2022-09-29T16:18:21.699Z,3.00
2022-09-29T16:20:49.353Z,3.13
2022-09-29T16:23:59.919Z,3.07
2022-09-29T16:26:32.355Z,2.73
2022-09-29T16:29:02.286Z,2.90
2022-09-29T16:31:30.852Z,3.23
2022-09-29T16:34:03.299Z,2.63
2022-09-29T16:36:36.797Z,3.10
2022-09-29T16:39:06.497Z,2.77
2022-09-29T16:41:36.612Z,2.70
2022-09-29T16:44:17.287Z,3.10
2022-09-29T16:46:51.279Z,3.00
2022-09-29T16:49:23.082Z,3.03
2022-09-29T16:51:50.728Z,2.97
2022-09-29T16:54:23.683Z,2.97
2022-09-29T16:57:08.869Z,3.03
2022-09-29T16:59:35.519Z,3.07
2022-09-29T17:02:06.041Z,3.10
2022-09-29T17:04:33.917Z,3.30
2022-09-29T17:07:01.267Z,3.40
2022-09-29T17:09:28.096Z,3.47
2022-09-29T17:11:54.735Z,3.30
2022-09-29T17:14:25.157Z,3.40
2022-09-29T17:16:52.830Z,3.30
2022-09-29T17:19:20.474Z,2.97
2022-09-29T17:21:47.308Z,3.37
2022-09-29T17:24:14.104Z,3.43
2022-09-29T17:27:04.403Z,3.90
2022-09-29T17:29:31.513Z,3.73
2022-09-29T17:31:58.325Z,3.90
2022-09-29T17:34:30.964Z,3.87
2022-09-29T17:37:01.846Z,4.00
2022-09-29T17:39:29.287Z,3.77
2022-09-29T17:41:56.006Z,3.63
2022-09-29T17:44:22.702Z,4.20
2022-09-29T17:46:50.655Z,4.83
2022-09-29T17:49:20.222Z,4.10
2022-09-29T17:51:46.953Z,4.20
2022-09-29T17:54:14.045Z,4.83
2022-09-29T17:56:44.345Z,5.97
2022-09-29T17:59:11.154Z,4.47
2022-09-29T18:01:38.901Z,4.53
2022-09-29T18:04:06.253Z,4.60
2022-09-29T18:06:37.307Z,4.80
2022-09-29T18:09:14.261Z,4.97
2022-09-29T18:11:40.966Z,4.50
2022-09-29T18:14:07.964Z,4.90
2022-09-29T18:16:35.354Z,4.73
2022-09-29T18:19:02.314Z,4.07
2022-09-29T18:21:31.708Z,4.07
2022-09-29T18:23:58.530Z,5.37
2022-09-29T18:26:26.131Z,4.40
2022-09-29T18:28:54.760Z,4.20
2022-09-29T18:31:28.807Z,3.90
2022-09-29T18:33:55.706Z,3.90
2022-09-29T18:36:22.394Z,4.10
2022-09-29T18:38:49.284Z,3.43
2022-09-29T18:41:19.905Z,3.80
2022-09-29T18:43:47.593Z,3.97
2022-09-29T18:46:14.751Z,3.80
2022-09-29T18:48:42.056Z,3.80
2022-09-29T18:51:13.419Z,3.93
2022-09-29T18:53:41.926Z,3.90
2022-09-29T18:56:16.845Z,4.33
2022-09-29T18:58:44.515Z,4.33
2022-09-29T19:01:24.342Z,4.17
2022-09-29T19:03:51.344Z,5.57
2022-09-29T19:06:18.360Z,6.53
2022-09-29T19:08:46.721Z,6.07
2022-09-29T19:11:24.878Z,10.10
2022-09-29T19:13:55.091Z,8.43
2022-09-29T19:16:23.936Z,7.37
2022-09-29T19:18:53.030Z,7.83
2022-09-29T19:21:19.896Z,7.87
2022-09-29T19:23:46.881Z,7.87
2022-09-29T19:26:22.648Z,7.90
2022-09-29T19:28:50.783Z,7.37
2022-09-29T19:31:22.843Z,8.83
2022-09-29T19:33:51.879Z,7.97
2022-09-29T19:36:21.199Z,7.10
2022-09-29T19:38:48.875Z,7.90
2022-09-29T19:41:20.133Z,7.53
2022-09-29T19:43:47.526Z,7.70
2022-09-29T19:46:15.843Z,8.20
2022-09-29T19:48:43.459Z,17.17
2022-09-29T19:51:34.798Z,14.53
2022-09-29T19:54:15.696Z,8.33
2022-09-29T19:56:45.426Z,9.47
2022-09-29T19:59:15.228Z,10.53
2022-09-29T20:01:45.400Z,11.27
2022-09-29T20:04:14.344Z,9.80
2022-09-29T20:06:41.839Z,9.70
2022-09-29T20:09:09.398Z,8.87
2022-09-29T20:11:38.126Z,9.17
2022-09-29T20:14:06.721Z,8.93
2022-09-29T20:16:36.561Z,9.10
2022-09-29T20:19:07.442Z,9.93
2022-09-29T20:21:40.099Z,10.07
2022-09-29T20:24:10.328Z,10.33
2022-09-29T20:26:38.765Z,10.77
2022-09-29T20:29:08.649Z,10.47
2022-09-29T20:31:38.535Z,9.40
2022-09-29T20:34:07.010Z,9.23
2022-09-29T20:36:36.800Z,9.47
2022-09-29T20:39:04.377Z,9.53
2022-09-29T20:41:31.748Z,9.73
2022-09-29T20:44:00.583Z,9.17
2022-09-29T20:46:28.176Z,8.93
2022-09-29T20:48:56.951Z,9.30
2022-09-29T20:51:24.580Z,8.40
2022-09-29T20:53:57.283Z,8.87
2022-09-29T20:56:31.320Z,9.27
2022-09-29T20:58:59.992Z,8.87
2022-09-29T21:01:29.525Z,8.60
2022-09-29T21:04:00.374Z,8.80
2022-09-29T21:06:30.041Z,9.60
2022-09-29T21:08:58.448Z,8.50
2022-09-29T21:11:25.763Z,8.87
2022-09-29T21:13:56.739Z,8.93
2022-09-29T21:16:24.861Z,10.10
2022-09-29T21:18:54.106Z,10.40
2022-09-29T21:21:20.846Z,11.20
2022-09-29T21:23:47.753Z,12.30
2022-09-29T21:26:16.461Z,11.20
2022-09-29T21:28:51.558Z,10.80
2022-09-29T21:31:19.922Z,10.57
2022-09-29T21:33:53.150Z,9.67
2022-09-29T21:36:20.207Z,10.00
2022-09-29T21:38:48.177Z,9.93
2022-09-29T21:41:18.407Z,9.90
2022-09-29T21:43:46.488Z,10.80
2022-09-29T21:46:16.719Z,10.07
2022-09-29T21:48:44.053Z,10.70
2022-09-29T21:51:14.719Z,9.83
2022-09-29T21:53:42.531Z,10.13
2022-09-29T21:56:16.077Z,10.37
2022-09-29T21:58:43.169Z,10.00
2022-09-29T22:01:11.472Z,9.80
2022-09-29T22:03:46.250Z,11.00
2022-09-29T22:06:18.216Z,9.70
2022-09-29T22:08:46.690Z,10.27
2022-09-29T22:11:15.512Z,9.53
2022-09-29T22:13:45.051Z,9.23
2022-09-29T22:16:17.223Z,9.57
2022-09-29T22:18:44.539Z,8.73
2022-09-29T22:21:13.554Z,8.53
2022-09-29T22:23:42.856Z,8.97
2022-09-29T22:26:12.993Z,8.03
2022-09-29T22:28:40.146Z,8.80
2022-09-29T22:31:11.402Z,8.80
2022-09-29T22:33:41.583Z,8.43
2022-09-29T22:36:08.637Z,8.40
2022-09-29T22:38:37.114Z,8.33
2022-09-29T22:41:16.354Z,8.10
2022-09-29T22:43:43.153Z,9.30
2022-09-29T22:46:11.972Z,8.80
2022-09-29T22:48:39.848Z,8.03
2022-09-29T22:51:06.961Z,8.70
2022-09-29T22:53:33.533Z,8.27
2022-09-29T22:56:07.281Z,8.07
2022-09-29T22:58:33.922Z,8.23
2022-09-29T23:01:08.957Z,7.33
2022-09-29T23:03:35.815Z,8.37
2022-09-29T23:06:05.631Z,7.77
2022-09-29T23:08:34.248Z,8.20
2022-09-29T23:11:04.273Z,7.80
2022-09-29T23:13:31.482Z,8.30
2022-09-29T23:16:11.050Z,8.30
2022-09-29T23:18:43.941Z,8.23
2022-09-29T23:21:18.829Z,8.83
2022-09-29T23:23:46.303Z,8.30
2022-09-29T23:26:12.966Z,8.30
2022-09-29T23:28:39.698Z,8.33
2022-09-29T23:31:07.576Z,7.87
2022-09-29T23:33:34.368Z,8.53
2022-09-29T23:36:09.457Z,8.20
2022-09-29T23:38:56.308Z,8.00
2022-09-29T23:41:24.883Z,7.80
2022-09-29T23:43:51.439Z,7.90
2022-09-29T23:46:18.022Z,7.90
2022-09-29T23:48:44.741Z,8.30
2022-09-29T23:51:11.473Z,8.47
2022-09-29T23:53:38.105Z,7.73
2022-09-29T23:56:04.899Z,8.33
2022-09-29T23:58:31.517Z,7.30
